Glenavy, New Zealand
Current Conditions -  °F | °C
As of 12:30 PM on Thursday 18 Dec 2014 (Local Time) from NZCH Reporting Station
Rain Showers Rain Showers  
Wind Chill: 63°   Ceiling: 1800
Heat Index: 63°   Visibility: 6mi
Dew Point: 61°   Wind: 13mph
Humidity: 94%   Direction: 220°SW
Pressure: 29.74"   Gusts: NA
Location:  44.92°S, 171.1°E
Report Text: NZCH 180030Z AUTO 22011KT 9999 -SHRA SCT010/// BKN018///BKN024/// 17/16 Q1007 NOSIG
Loading
Personal Weather Stations






























Interactive Weather Map New forecast layout! Learn more

10-Day Weather Forecast

Advertisements
Track Severe Weather on mobile